Carneirinho, Brazil
Current Conditions -  °F | °C
As of 8:00 AM on Saturday 25 Oct 2014 (Local Time) from SBAU Reporting Station
Drizzle Drizzle  
Wind Chill: 70°   Ceiling: 10000
Heat Index: 70°   Visibility: 4mi
Dew Point: 66°   Wind: 8mph
Humidity: 88%   Direction: 60°ENE
Pressure: 29.97"   Gusts: NA
Location:  19.7°S, 50.69°W
Report Text: SBAU 251000Z 06007KT 7000 -DZ VCFG FEW014 SCT060 OVC100 21/19 Q1015
Loading
Personal Weather Stations






























Interactive Weather Map
Tropical Storm Tracking
New forecast layout! Learn more

10-Day Weather Forecast

Advertisements
Track Severe Weather on mobile